Prince Albert Glass Field
CYPA : now visible

Airfield :











YOU CAN JOIN US ON...

 
LOGIN :

Register | Disclaimer

   EN    FR    IT 

 









Legend :    VFR   Marginal VFR   IFR   Intensive IFR   Very Intensive IFR
Visi :
Ceiling :
>= 8 km
>= 3000ft
5 to 8 km
1000 to 3000 ft
1500m to 5 km
500 to 1000 ft
800 to 1500m
200 to 500 ft
< 800m
< 200 ft
Symbols :   Thunderstorms  Fog  Heavy snow  Heavy precipitations  Wind > 20 kt






- Airport Elevation : 1405 ft
- IATA code : YPA


CYPA - Prince Albert Glass Field

CURRENT METAR :
  • 031200Z 08005KT 3SM FU OVC120 19/16 A2996 RMK FU3AC5 SLP145 DENSITY ALT 2200FT

EXPIRED METARs :
  • 031100Z 07005KT 8SM OVC130 19/16 A2997 RMK AC8 FU SLP148 DENSITY ALT 2200FT
  • 031000Z 10003KT 12SM OVC140 18/17 A2999 RMK AC8 SLP155 DENSITY ALT 2100FT

TAF TAF CYPA
Valid from the 03 at 07:00 until the 03 at 19:00 UTC


030638Z 0307/0319 VRB03KT P6SM FEW150 BKN200
TEMPO 0307/0309 6SM FU
FM030900 VRB03KT 6SM FU BKN120 OVC200
TEMPO 0309/0319 2SM FU
BECMG 0316/0318 24007KT RMK NXT FCST BY 031300Z
CZWG FIR / North America



MET'MAP, your aeronautical weather chart ! - Copyright ORBIFLY December 2007 - Disclaimer

ORBIFLY MET'MAP TEAM :

Programming & Development : Alexandra Zaïnal
Concept & original design : Baudouin d'Aumeries
Assistance for programming : Marc-Olivier Méhu
Technical & hardware support : Manuel Goepfert

Contact : metmap@orbifly.com




SOURCES & CREDITS :

   NOAA       Earth
Advisory